Startpagina
METAR-TAF:

METAR-TAF

Vliegvelden :

Manta, Ecuador

breedte: 00-57S, lengte: 080-41W, hoogte: 13 m

Actueel weer

Dit bericht is 48 minuten geleden gemaakt, om 03:00 UTC
Wind 6 kt uit het zuidwesten
Temperatuur 25°C
Vochtigheid 83%
Druk 1009 hPa
Zicht 10 km of meer
geen wolken onder 1500 m en geen cumulonimbus

METAR: SEMT 120300Z 22006KT CAVOK 25/22 Q1009 RMK A2980

Tijdstip: 22:48 (03:48 UTC)

Verwachting

Dit bericht is 5 uur en het 35 minuten geleden gemaakt, om 22:13 UTC
Verwachting geldig van 12 om 00 UTC tot 12 om 24 UTC
Wind 6 kt uit het zuidzuidwesten
Zicht 10 km of meer
Weinig wolken op 2000 ft
Gebroken wolken op 8000 ft
Wijzigt naar
van 12 om 03 UTC tot 12 om 05 UTC
Gebroken wolken op 2000 ft
Gebroken wolken op 8000 ft
Wijzigt naar
van 12 om 16 UTC tot 12 om 18 UTC
Wind 6 kt uit het westnoordwesten
Verspreide wolken op 3000 ft
Verspreide wolken op 10000 ft

TAF: SEMT 112213Z 1200/1224 21006KT 9999 FEW020 BKN080 BECMG 1203/1205 BKN020 BKN080 BECMG 1216/1218 30006KT SCT030 SCT100 TX30/1220Z TN25/1210Z

Waarnemingen en weersverwachtingen van meer dan 4000 vliegvelden (METAR en TAF).

De beschikbare stations zijn de gele en rode punten op de kaart.

Ga met uw muis naar het station om de naam te zien.

Klik dan om waarnemingen en weersverwachtingen te zien.

kaart wijzigen: klik op de groene knoppen met een zwart kruis om in te zoomen, op de groene knop met een streepje om uit te zoomen of op de groene pijlen voor aangrenzende kaarten.


METAR-TAF: